メインページ
METAR-TAF:

METAR-TAF

空港 :

リガ, ラトビア

リガ国際空港

緯度: 56-55N, 経度: 023-58E, 海抜: 10m

現時点の気象観測

当レポートは34分前の12:50(UTC)に作成
東/南東の風 9kt
気温 19°C
湿度 52%
気圧 1035 hPa
視程10km以上
1,500メートル以下は雲なし、積乱雲なし

METAR: EVRA 251250Z 11009KT CAVOK 19/09 Q1035 NOSIG

時間: 16:24 (13:24 UTC)

予報

当レポートは2時間21分前の11:03(UTC)に作成
予報は25日の 12時(UTC)から 26日の 12時(UTC)まで有効
の風 7kt
視程10km以上
1,500メートル以下は雲なし、積乱雲なし
確率 40% :
26日の 02時(UTC)から 26日の 05時(UTC)まで一時的に
視程: 3000m
浅い霧, 靄

TAF: EVRA 251103Z 2512/2612 09007KT CAVOK PROB40 TEMPO 2602/2605 3000 MIFG BR

4,000以上の空港の気象観測と天気予報(METAR報とTAF報)

利用可能な観測所は地図上に黄色い丸と赤い丸で示す。

丸の上にカーソルを重ねると観測所名を参照できる。

次にクリックすると気象観測と天気予報を参照できる。

マップの切り替え:黒色「×」印の緑ボタンをクリックして拡大、「-」印の緑ボタンをクリックして縮小、緑色の三角印をクリックして隣りの地図に切り替え


METAR-TAF: